createdAt,value
2023-09-06T00:00:13.147Z,0.00
2023-09-06T00:01:13.231Z,0.00
2023-09-06T00:02:13.202Z,0.00
2023-09-06T00:03:13.426Z,0.00
2023-09-06T00:04:13.428Z,0.00
2023-09-06T00:05:13.404Z,0.00
2023-09-06T00:06:13.302Z,0.00
2023-09-06T00:07:13.312Z,0.00
2023-09-06T00:08:13.340Z,0.00
2023-09-06T00:09:13.380Z,0.00
2023-09-06T00:10:13.435Z,0.00
2023-09-06T00:11:13.420Z,0.00
2023-09-06T00:12:13.447Z,0.00
2023-09-06T00:13:13.493Z,0.00
2023-09-06T00:14:13.491Z,0.00
2023-09-06T00:15:13.551Z,0.00
2023-09-06T00:16:13.549Z,0.00
2023-09-06T00:17:13.579Z,0.00
2023-09-06T00:18:13.633Z,0.00
2023-09-06T00:19:13.718Z,0.00
2023-09-06T00:20:13.648Z,0.00
2023-09-06T00:21:13.683Z,0.00
2023-09-06T00:22:13.697Z,0.00
2023-09-06T00:23:13.733Z,0.00
2023-09-06T00:24:13.756Z,0.00
2023-09-06T00:25:13.790Z,0.00
2023-09-06T00:26:13.836Z,0.00
2023-09-06T00:27:13.856Z,0.00
2023-09-06T00:28:13.859Z,0.00
2023-09-06T00:29:13.883Z,0.00
2023-09-06T00:30:13.908Z,0.00
2023-09-06T00:31:13.997Z,0.00
2023-09-06T00:32:14.015Z,0.00
2023-09-06T00:33:13.981Z,0.00
2023-09-06T00:34:14.006Z,0.00
2023-09-06T00:35:14.036Z,0.00
2023-09-06T00:36:14.086Z,0.00
2023-09-06T00:37:14.109Z,0.00
2023-09-06T00:38:14.110Z,0.00
2023-09-06T00:39:14.141Z,0.00
2023-09-06T00:40:14.160Z,0.00
2023-09-06T00:41:14.227Z,0.00
2023-09-06T00:42:14.213Z,0.00
2023-09-06T00:43:14.233Z,0.00
2023-09-06T00:44:14.261Z,0.00
2023-09-06T00:45:14.294Z,0.00
2023-09-06T00:46:14.333Z,0.00
2023-09-06T00:47:14.370Z,0.00
2023-09-06T00:48:14.367Z,0.00
2023-09-06T00:49:14.420Z,0.00
2023-09-06T00:50:14.418Z,0.00
2023-09-06T00:51:14.440Z,0.00
2023-09-06T00:52:14.499Z,0.00
2023-09-06T00:53:14.495Z,0.00
2023-09-06T00:54:14.524Z,0.00
2023-09-06T00:55:14.560Z,0.00
2023-09-06T00:56:14.572Z,0.00
2023-09-06T00:57:14.596Z,0.00
2023-09-06T00:58:14.722Z,0.00
2023-09-06T00:59:14.648Z,0.00
2023-09-06T01:00:14.672Z,0.00
2023-09-06T01:01:14.764Z,0.00
2023-09-06T01:02:14.809Z,0.00
2023-09-06T01:03:14.989Z,0.00
2023-09-06T01:04:14.795Z,0.00
2023-09-06T01:05:14.819Z,0.00
2023-09-06T01:06:14.858Z,0.00
2023-09-06T01:07:14.859Z,0.00
2023-09-06T01:08:14.883Z,0.00
2023-09-06T01:09:14.901Z,0.00
2023-09-06T01:10:14.930Z,0.00
2023-09-06T01:11:14.953Z,0.00
2023-09-06T01:12:14.986Z,0.00
2023-09-06T01:13:15.005Z,0.00
2023-09-06T01:14:15.030Z,0.00
2023-09-06T01:15:15.089Z,0.00
2023-09-06T01:16:15.112Z,0.00
2023-09-06T01:17:15.177Z,0.00
2023-09-06T01:18:15.170Z,0.00
2023-09-06T01:19:15.168Z,0.00
2023-09-06T01:20:15.191Z,0.00
2023-09-06T01:21:15.220Z,0.00
2023-09-06T01:22:15.265Z,0.00
2023-09-06T01:23:15.288Z,0.00
2023-09-06T01:24:15.322Z,0.00
2023-09-06T01:25:15.315Z,0.00
2023-09-06T01:26:15.381Z,0.00
2023-09-06T01:27:15.362Z,0.00
2023-09-06T01:28:15.486Z,0.00
2023-09-06T01:29:15.438Z,0.00
2023-09-06T01:30:15.448Z,0.00
2023-09-06T01:31:15.592Z,0.00
2023-09-06T01:32:15.491Z,0.00
2023-09-06T01:33:15.541Z,0.00
2023-09-06T01:34:15.594Z,0.00
2023-09-06T01:35:15.568Z,0.00
2023-09-06T01:36:15.619Z,0.00
2023-09-06T01:37:15.734Z,0.00
2023-09-06T01:38:15.639Z,0.00
2023-09-06T01:39:15.668Z,0.00
2023-09-06T01:40:15.707Z,0.00
2023-09-06T01:41:15.729Z,0.00
2023-09-06T01:42:15.798Z,0.00
2023-09-06T01:43:15.824Z,0.00
2023-09-06T01:44:15.826Z,0.00
2023-09-06T01:45:15.839Z,0.00
2023-09-06T01:46:15.940Z,0.00
2023-09-06T01:47:15.912Z,0.00
2023-09-06T01:48:15.928Z,0.00
2023-09-06T01:49:16.011Z,0.00
2023-09-06T01:50:15.964Z,0.00
2023-09-06T01:51:15.974Z,0.00
2023-09-06T01:52:16.107Z,0.00
2023-09-06T01:53:16.085Z,0.00
2023-09-06T01:54:16.070Z,0.00
2023-09-06T01:55:16.126Z,0.00
2023-09-06T01:56:16.120Z,0.00
2023-09-06T01:57:16.129Z,0.00
2023-09-06T01:58:16.235Z,0.00
2023-09-06T01:59:16.220Z,0.00
2023-09-06T02:00:16.210Z,0.00
2023-09-06T02:01:16.303Z,0.00
2023-09-06T02:02:16.257Z,0.00
2023-09-06T02:03:16.352Z,0.00
2023-09-06T02:04:16.389Z,0.00
2023-09-06T02:05:16.341Z,0.00
2023-09-06T02:06:16.367Z,0.00
2023-09-06T02:07:16.413Z,0.00
2023-09-06T02:08:16.432Z,0.00
2023-09-06T02:09:16.488Z,0.00
2023-09-06T02:10:16.516Z,0.00
2023-09-06T02:11:16.496Z,0.00
2023-09-06T02:12:16.518Z,0.00
2023-09-06T02:13:16.616Z,0.00
2023-09-06T02:14:16.645Z,0.00
2023-09-06T02:15:16.594Z,0.00
2023-09-06T02:16:16.692Z,0.00
2023-09-06T02:17:16.668Z,0.00
2023-09-06T02:18:16.832Z,0.00
2023-09-06T02:19:16.729Z,0.00
2023-09-06T02:20:16.757Z,0.00
2023-09-06T02:21:16.748Z,0.00
2023-09-06T02:22:16.814Z,0.00
2023-09-06T02:23:16.799Z,0.00
2023-09-06T02:24:16.818Z,0.00
2023-09-06T02:25:16.875Z,0.00
2023-09-06T02:26:16.873Z,0.00
2023-09-06T02:27:16.890Z,0.00
2023-09-06T02:28:16.956Z,0.00
2023-09-06T02:29:16.942Z,0.00
2023-09-06T02:30:17.052Z,0.00
2023-09-06T02:31:17.062Z,0.00
2023-09-06T02:32:17.130Z,0.00
2023-09-06T02:33:17.125Z,0.00
2023-09-06T02:34:17.107Z,0.00
2023-09-06T02:35:17.141Z,0.00
2023-09-06T02:36:17.121Z,0.00
2023-09-06T02:37:17.218Z,0.00
2023-09-06T02:38:17.166Z,0.00
2023-09-06T02:39:17.196Z,0.00
2023-09-06T02:40:17.257Z,0.00
2023-09-06T02:41:17.246Z,0.00
2023-09-06T02:42:17.306Z,0.00
2023-09-06T02:43:17.342Z,0.00
2023-09-06T02:44:17.328Z,0.00
2023-09-06T02:45:17.403Z,0.00
2023-09-06T02:46:17.520Z,0.00
2023-09-06T02:47:17.413Z,0.00
2023-09-06T02:48:17.428Z,0.00
2023-09-06T02:49:17.448Z,0.00
2023-09-06T02:50:17.500Z,0.00
2023-09-06T02:51:17.550Z,0.00
2023-09-06T02:52:17.522Z,0.00
2023-09-06T02:53:17.552Z,0.00
2023-09-06T02:54:17.570Z,0.00
2023-09-06T02:55:17.642Z,0.00
2023-09-06T02:56:17.618Z,0.00
2023-09-06T02:57:17.649Z,0.00
2023-09-06T02:58:17.669Z,0.00
2023-09-06T02:59:17.698Z,0.00
2023-09-06T03:00:17.750Z,0.00
2023-09-06T03:01:17.863Z,0.00
2023-09-06T03:02:17.799Z,0.00
2023-09-06T03:03:17.871Z,0.00
2023-09-06T03:04:17.849Z,0.00
2023-09-06T03:05:17.876Z,0.00
2023-09-06T03:06:17.892Z,0.00
2023-09-06T03:07:17.939Z,0.00
2023-09-06T03:08:17.923Z,0.00
2023-09-06T03:09:17.956Z,0.00
2023-09-06T03:10:17.974Z,0.00
2023-09-06T03:11:17.995Z,0.00
2023-09-06T03:12:18.025Z,0.00
2023-09-06T03:13:18.076Z,0.00
2023-09-06T03:14:18.072Z,0.00
2023-09-06T03:15:18.103Z,0.00
2023-09-06T03:16:18.238Z,0.00
2023-09-06T03:17:18.152Z,0.00
2023-09-06T03:18:18.169Z,0.00
2023-09-06T03:19:18.274Z,0.00
2023-09-06T03:20:18.232Z,0.00
2023-09-06T03:21:18.265Z,0.00
2023-09-06T03:22:18.294Z,0.00
2023-09-06T03:23:18.662Z,0.00
2023-09-06T03:24:18.318Z,0.00
2023-09-06T03:25:18.385Z,0.00
2023-09-06T03:26:18.368Z,0.00
2023-09-06T03:27:18.443Z,0.00
2023-09-06T03:28:18.450Z,0.00
2023-09-06T03:29:18.459Z,0.00
2023-09-06T03:30:18.463Z,0.00
2023-09-06T03:31:18.568Z,0.00
2023-09-06T03:32:18.613Z,0.00
2023-09-06T03:33:18.538Z,0.00
2023-09-06T03:34:18.557Z,0.00
2023-09-06T03:35:18.634Z,0.00
2023-09-06T03:36:18.629Z,0.00
2023-09-06T03:37:18.636Z,0.00
2023-09-06T03:38:18.674Z,0.00
2023-09-06T03:39:18.689Z,0.00
2023-09-06T03:40:18.739Z,0.00
2023-09-06T03:41:18.825Z,0.00
2023-09-06T03:42:18.753Z,0.00
2023-09-06T03:43:18.781Z,0.00
2023-09-06T03:44:18.899Z,0.00
2023-09-06T03:45:18.839Z,0.00
2023-09-06T03:46:18.880Z,0.00
2023-09-06T03:47:19.084Z,0.00
2023-09-06T03:48:19.157Z,0.00
2023-09-06T03:49:19.005Z,0.00
2023-09-06T03:50:18.995Z,0.00
2023-09-06T03:51:19.028Z,0.00
2023-09-06T03:52:18.995Z,0.00
2023-09-06T03:53:19.024Z,0.00
2023-09-06T03:54:19.055Z,0.00
2023-09-06T03:55:19.096Z,0.00
2023-09-06T03:56:19.161Z,0.00
2023-09-06T03:57:19.137Z,0.00
2023-09-06T03:58:19.148Z,0.00
2023-09-06T03:59:19.183Z,0.00
2023-09-06T04:00:19.227Z,0.00
2023-09-06T04:01:19.283Z,0.00
2023-09-06T04:02:19.319Z,0.00
2023-09-06T04:03:19.524Z,0.00
2023-09-06T04:04:19.383Z,0.00
2023-09-06T04:05:19.409Z,0.00
2023-09-06T04:06:19.355Z,0.00
2023-09-06T04:07:19.368Z,0.00
2023-09-06T04:08:19.708Z,0.00
2023-09-06T04:09:19.432Z,0.00
2023-09-06T04:10:19.448Z,0.00
2023-09-06T04:11:19.549Z,0.00
2023-09-06T04:12:19.513Z,0.00
2023-09-06T04:13:19.517Z,0.00
2023-09-06T04:14:19.547Z,0.00
2023-09-06T04:15:19.571Z,0.00
2023-09-06T04:16:19.656Z,0.00
2023-09-06T04:17:19.609Z,0.00
2023-09-06T04:18:19.760Z,0.00
2023-09-06T04:19:19.655Z,0.00
2023-09-06T04:20:19.686Z,0.00
2023-09-06T04:21:20.989Z,4.00
2023-09-06T04:22:19.761Z,0.00
2023-09-06T04:23:19.815Z,0.00
2023-09-06T04:24:19.781Z,4.00
2023-09-06T04:25:19.810Z,0.00
2023-09-06T04:26:19.886Z,4.00
2023-09-06T04:27:19.882Z,4.00
2023-09-06T04:28:19.870Z,4.00
2023-09-06T04:29:20.070Z,4.00
2023-09-06T04:30:19.927Z,4.00
2023-09-06T04:31:19.987Z,8.00
2023-09-06T04:32:20.056Z,8.00
2023-09-06T04:33:20.002Z,8.00
2023-09-06T04:34:20.016Z,12.00
2023-09-06T04:35:20.101Z,12.00
2023-09-06T04:36:20.106Z,16.00
2023-09-06T04:37:20.151Z,16.00
2023-09-06T04:38:20.136Z,20.00
2023-09-06T04:39:20.140Z,24.00
2023-09-06T04:40:20.179Z,24.00
2023-09-06T04:41:20.234Z,32.00
2023-09-06T04:42:20.251Z,32.00
2023-09-06T04:43:20.237Z,36.00
2023-09-06T04:44:20.291Z,40.00
2023-09-06T04:45:20.298Z,48.00
2023-09-06T04:46:20.337Z,48.00
2023-09-06T04:47:20.387Z,52.00
2023-09-06T04:48:20.408Z,60.00
2023-09-06T04:49:20.408Z,64.00
2023-09-06T04:50:20.432Z,72.00
2023-09-06T04:51:20.427Z,76.00
2023-09-06T04:52:20.448Z,80.00
2023-09-06T04:53:20.486Z,84.00
2023-09-06T04:54:20.588Z,92.00
2023-09-06T04:55:20.533Z,96.00
2023-09-06T04:56:20.546Z,104.00
2023-09-06T04:57:20.632Z,108.00
2023-09-06T04:58:20.617Z,120.00
2023-09-06T04:59:20.722Z,124.00
2023-09-06T05:00:20.754Z,132.00
2023-09-06T05:01:20.736Z,136.00
2023-09-06T05:02:20.716Z,144.00
2023-09-06T05:03:21.021Z,152.00
2023-09-06T05:04:20.797Z,156.00
2023-09-06T05:05:20.814Z,164.00
2023-09-06T05:06:20.789Z,168.00
2023-09-06T05:07:20.812Z,176.00
2023-09-06T05:08:20.878Z,180.00
2023-09-06T05:09:20.917Z,188.00
2023-09-06T05:10:20.889Z,192.00
2023-09-06T05:11:20.936Z,200.00
2023-09-06T05:12:20.930Z,208.00
2023-09-06T05:13:20.959Z,208.00
2023-09-06T05:14:20.999Z,216.00
2023-09-06T05:15:21.039Z,220.00
2023-09-06T05:16:21.080Z,228.00
2023-09-06T05:17:21.076Z,232.00
2023-09-06T05:18:21.090Z,236.00
2023-09-06T05:19:21.110Z,244.00
2023-09-06T05:20:21.158Z,248.00
2023-09-06T05:21:21.158Z,252.00
2023-09-06T05:22:21.166Z,260.00
2023-09-06T05:23:21.273Z,264.00
2023-09-06T05:24:21.218Z,264.00
2023-09-06T05:25:21.334Z,272.00
2023-09-06T05:26:21.345Z,276.00
2023-09-06T05:27:21.294Z,280.00
2023-09-06T05:28:21.342Z,284.00
2023-09-06T05:29:21.351Z,288.00
2023-09-06T05:30:21.397Z,296.00
2023-09-06T05:31:21.564Z,296.00
2023-09-06T05:32:21.409Z,300.00
2023-09-06T05:33:21.440Z,304.00
2023-09-06T05:34:21.468Z,308.00
2023-09-06T05:35:21.513Z,312.00
2023-09-06T05:36:21.509Z,316.00
2023-09-06T05:37:21.584Z,316.00
2023-09-06T05:38:21.561Z,324.00
2023-09-06T05:39:21.587Z,328.00
2023-09-06T05:40:21.643Z,332.00
2023-09-06T05:41:21.642Z,336.00
2023-09-06T05:42:21.647Z,340.00
2023-09-06T05:43:21.687Z,340.00
2023-09-06T05:44:21.696Z,344.00
2023-09-06T05:45:21.740Z,348.00
2023-09-06T05:46:33.112Z,352.00
2023-09-06T05:47:21.963Z,356.00
2023-09-06T05:48:21.835Z,356.00
2023-09-06T05:49:21.819Z,360.00
2023-09-06T05:50:21.848Z,368.00
2023-09-06T05:51:21.870Z,372.00
2023-09-06T05:52:21.894Z,376.00
2023-09-06T05:53:22.020Z,384.00
2023-09-06T05:54:21.940Z,388.00
2023-09-06T05:55:21.970Z,392.00
2023-09-06T05:56:21.996Z,400.00
2023-09-06T05:57:22.032Z,400.00
2023-09-06T05:58:22.069Z,404.00
2023-09-06T05:59:22.141Z,408.00
2023-09-06T06:00:22.104Z,412.00
2023-09-06T06:01:22.159Z,416.00
2023-09-06T06:02:22.240Z,420.00
2023-09-06T06:03:22.346Z,424.00
2023-09-06T06:04:22.217Z,424.00
2023-09-06T06:05:22.221Z,424.00
2023-09-06T06:06:22.232Z,424.00
2023-09-06T06:07:22.258Z,424.00
2023-09-06T06:08:22.342Z,424.00
2023-09-06T06:09:22.360Z,428.00
2023-09-06T06:10:22.335Z,424.00
2023-09-06T06:11:22.788Z,428.00
2023-09-06T06:12:22.384Z,432.00
2023-09-06T06:13:22.410Z,436.00
2023-09-06T06:14:22.560Z,440.00
2023-09-06T06:15:22.488Z,444.00
2023-09-06T06:16:22.516Z,444.00
2023-09-06T06:17:22.573Z,448.00
2023-09-06T06:18:22.564Z,448.00
2023-09-06T06:19:22.655Z,452.00
2023-09-06T06:20:30.821Z,460.00
2023-09-06T06:21:22.670Z,464.00
2023-09-06T06:22:22.671Z,468.00
2023-09-06T06:23:22.661Z,468.00
2023-09-06T06:24:22.734Z,472.00
2023-09-06T06:25:22.700Z,468.00
2023-09-06T06:26:22.737Z,468.00
2023-09-06T06:27:22.879Z,476.00
2023-09-06T06:28:22.836Z,476.00
2023-09-06T06:29:22.996Z,476.00
2023-09-06T06:30:22.864Z,480.00
2023-09-06T06:31:22.906Z,484.00
2023-09-06T06:32:22.948Z,480.00
2023-09-06T06:33:22.907Z,484.00
2023-09-06T06:34:22.951Z,484.00
2023-09-06T06:35:23.011Z,484.00
2023-09-06T06:36:22.973Z,476.00
2023-09-06T06:37:23.027Z,472.00
2023-09-06T06:38:23.053Z,472.00
2023-09-06T06:39:23.058Z,472.00
2023-09-06T06:40:23.106Z,468.00
2023-09-06T06:41:23.125Z,464.00
2023-09-06T06:42:23.141Z,468.00
2023-09-06T06:43:23.149Z,468.00
2023-09-06T06:44:23.217Z,468.00
2023-09-06T06:45:23.196Z,468.00
2023-09-06T06:46:23.225Z,464.00
2023-09-06T06:47:23.396Z,468.00
2023-09-06T06:48:23.271Z,468.00
2023-09-06T06:49:23.295Z,464.00
2023-09-06T06:50:23.659Z,464.00
2023-09-06T06:51:23.401Z,464.00
2023-09-06T06:52:23.368Z,456.00
2023-09-06T06:53:23.441Z,464.00
2023-09-06T06:54:23.457Z,464.00
2023-09-06T06:55:23.445Z,460.00
2023-09-06T06:56:23.568Z,460.00
2023-09-06T06:57:23.500Z,464.00
2023-09-06T06:58:23.515Z,464.00
2023-09-06T06:59:23.616Z,464.00
2023-09-06T07:00:23.597Z,464.00
2023-09-06T07:01:23.601Z,468.00
2023-09-06T07:02:23.673Z,468.00
2023-09-06T07:03:23.714Z,468.00
2023-09-06T07:04:23.672Z,468.00
2023-09-06T07:05:23.721Z,468.00
2023-09-06T07:06:23.716Z,472.00
2023-09-06T07:07:23.780Z,492.00
2023-09-06T07:08:23.807Z,496.00
2023-09-06T07:09:23.805Z,488.00
2023-09-06T07:10:23.819Z,480.00
2023-09-06T07:11:23.908Z,476.00
2023-09-06T07:12:23.871Z,476.00
2023-09-06T07:13:23.894Z,476.00
2023-09-06T07:14:24.006Z,476.00
2023-09-06T07:15:23.984Z,480.00
2023-09-06T07:16:24.079Z,484.00
2023-09-06T07:17:24.021Z,484.00
2023-09-06T07:18:24.142Z,484.00
2023-09-06T07:19:24.043Z,484.00
2023-09-06T07:20:24.129Z,484.00
2023-09-06T07:21:24.100Z,484.00
2023-09-06T07:22:24.141Z,488.00
2023-09-06T07:23:24.184Z,496.00
2023-09-06T07:24:24.197Z,500.00
2023-09-06T07:25:24.195Z,504.00
2023-09-06T07:26:24.303Z,504.00
2023-09-06T07:27:24.242Z,508.00
2023-09-06T07:28:24.316Z,512.00
2023-09-06T07:29:24.323Z,536.00
2023-09-06T07:30:24.350Z,576.00
2023-09-06T07:31:24.413Z,616.00
2023-09-06T07:32:25.197Z,624.00
2023-09-06T07:33:24.408Z,572.00
2023-09-06T07:34:24.481Z,548.00
2023-09-06T07:35:24.508Z,564.00
2023-09-06T07:36:24.468Z,600.00
2023-09-06T07:37:24.508Z,620.00
2023-09-06T07:38:24.555Z,600.00
2023-09-06T07:39:24.541Z,608.00
2023-09-06T07:40:24.622Z,600.00
2023-09-06T07:41:24.645Z,604.00
2023-09-06T07:42:24.623Z,628.00
2023-09-06T07:43:24.646Z,608.00
2023-09-06T07:44:24.677Z,564.00
2023-09-06T07:45:24.752Z,548.00
2023-09-06T07:46:24.777Z,528.00
2023-09-06T07:47:24.822Z,528.00
2023-09-06T07:48:24.929Z,512.00
2023-09-06T07:49:27.184Z,504.00
2023-09-06T07:50:24.887Z,504.00
2023-09-06T07:51:24.865Z,516.00
2023-09-06T07:52:24.876Z,512.00
2023-09-06T07:53:24.921Z,508.00
2023-09-06T07:54:24.925Z,524.00
2023-09-06T07:55:24.980Z,568.00
2023-09-06T07:56:25.061Z,624.00
2023-09-06T07:57:25.014Z,640.00
2023-09-06T07:58:25.153Z,588.00
2023-09-06T07:59:25.086Z,524.00
2023-09-06T08:00:25.085Z,516.00
2023-09-06T08:01:25.181Z,524.00
2023-09-06T08:02:25.132Z,544.00
2023-09-06T08:03:25.211Z,556.00
2023-09-06T08:04:25.186Z,608.00
2023-09-06T08:05:25.206Z,648.00
2023-09-06T08:06:25.405Z,624.00
2023-09-06T08:07:25.285Z,604.00
2023-09-06T08:08:25.289Z,560.00
2023-09-06T08:09:25.327Z,552.00
2023-09-06T08:10:25.375Z,592.00
2023-09-06T08:11:25.396Z,592.00
2023-09-06T08:12:25.413Z,712.00
2023-09-06T08:13:25.416Z,964.00
2023-09-06T08:14:25.442Z,868.00
2023-09-06T08:15:25.495Z,656.00
2023-09-06T08:16:25.522Z,616.00
2023-09-06T08:17:25.627Z,724.00
2023-09-06T08:18:25.643Z,900.00
2023-09-06T08:19:25.574Z,1320.00
2023-09-06T08:20:25.595Z,1832.00
2023-09-06T08:21:25.632Z,2188.00
2023-09-06T08:22:39.146Z,2236.00
2023-09-06T08:23:25.689Z,2088.00
2023-09-06T08:24:25.761Z,1708.00
2023-09-06T08:25:25.748Z,1660.00
2023-09-06T08:26:25.755Z,1496.00
2023-09-06T08:27:25.820Z,1104.00
2023-09-06T08:28:25.824Z,792.00
2023-09-06T08:29:25.896Z,544.00
2023-09-06T08:30:25.919Z,512.00
2023-09-06T08:31:26.040Z,520.00
2023-09-06T08:32:26.118Z,556.00
2023-09-06T08:33:26.139Z,652.00
2023-09-06T08:34:25.986Z,708.00
2023-09-06T08:35:26.028Z,712.00
2023-09-06T08:36:26.074Z,596.00
2023-09-06T08:37:26.054Z,576.00
2023-09-06T08:38:26.138Z,648.00
2023-09-06T08:39:26.178Z,808.00
2023-09-06T08:40:26.142Z,836.00
2023-09-06T08:41:26.161Z,984.00
2023-09-06T08:42:26.219Z,1312.00
2023-09-06T08:43:26.240Z,1376.00
2023-09-06T08:44:26.281Z,1384.00
2023-09-06T08:45:26.303Z,1264.00
2023-09-06T08:46:26.370Z,1248.00
2023-09-06T08:47:26.379Z,1416.00
2023-09-06T08:48:26.410Z,1376.00
2023-09-06T08:49:26.405Z,1036.00
2023-09-06T08:50:26.426Z,768.00
2023-09-06T08:51:26.468Z,748.00
2023-09-06T08:52:26.471Z,764.00
2023-09-06T08:53:26.494Z,596.00
2023-09-06T08:54:26.582Z,600.00
2023-09-06T08:55:26.545Z,616.00
2023-09-06T08:56:26.574Z,656.00
2023-09-06T08:57:26.632Z,736.00
2023-09-06T08:58:26.695Z,668.00
2023-09-06T08:59:26.685Z,712.00
2023-09-06T09:00:26.716Z,712.00
2023-09-06T09:01:26.882Z,616.00
2023-09-06T09:02:26.819Z,620.00
2023-09-06T09:03:26.887Z,632.00
2023-09-06T09:04:26.945Z,632.00
2023-09-06T09:05:27.023Z,664.00
2023-09-06T09:06:26.928Z,672.00
2023-09-06T09:07:26.877Z,632.00
2023-09-06T09:08:26.940Z,712.00
2023-09-06T09:09:26.951Z,764.00
2023-09-06T09:10:26.968Z,672.00
2023-09-06T09:11:26.995Z,656.00
2023-09-06T09:12:27.137Z,800.00
2023-09-06T09:13:27.315Z,1160.00
2023-09-06T09:14:27.108Z,1208.00
2023-09-06T09:15:27.293Z,1044.00
2023-09-06T09:16:27.259Z,1092.00
2023-09-06T09:17:27.198Z,920.00
2023-09-06T09:18:27.278Z,776.00
2023-09-06T09:19:27.333Z,872.00
2023-09-06T09:20:27.248Z,1136.00
2023-09-06T09:21:27.272Z,1200.00
2023-09-06T09:22:27.338Z,952.00
2023-09-06T09:23:27.600Z,736.00
2023-09-06T09:24:27.489Z,588.00
2023-09-06T09:25:27.385Z,560.00
2023-09-06T09:26:27.414Z,560.00
2023-09-06T09:27:27.443Z,560.00
2023-09-06T09:28:27.571Z,560.00
2023-09-06T09:29:27.527Z,572.00
2023-09-06T09:30:27.562Z,596.00
2023-09-06T09:31:27.587Z,616.00
2023-09-06T09:32:27.597Z,652.00
2023-09-06T09:33:27.694Z,668.00
2023-09-06T09:34:27.633Z,612.00
2023-09-06T09:35:27.690Z,584.00
2023-09-06T09:36:27.734Z,700.00
2023-09-06T09:37:27.717Z,660.00
2023-09-06T09:38:28.130Z,616.00
2023-09-06T09:39:27.908Z,684.00
2023-09-06T09:40:41.730Z,596.00
2023-09-06T09:41:27.860Z,560.00
2023-09-06T09:42:27.892Z,560.00
2023-09-06T09:43:28.127Z,560.00
2023-09-06T09:44:27.913Z,560.00
2023-09-06T09:45:28.005Z,564.00
2023-09-06T09:46:28.096Z,564.00
2023-09-06T09:48:28.114Z,568.00
2023-09-06T09:49:28.081Z,572.00
2023-09-06T09:50:28.086Z,596.00
2023-09-06T09:51:28.180Z,576.00
2023-09-06T09:52:28.203Z,572.00
2023-09-06T09:53:28.172Z,572.00
2023-09-06T09:54:28.197Z,576.00
2023-09-06T09:55:28.240Z,580.00
2023-09-06T09:56:28.281Z,572.00
2023-09-06T09:57:28.312Z,576.00
2023-09-06T09:58:28.316Z,580.00
2023-09-06T09:59:28.377Z,580.00
2023-09-06T10:00:28.390Z,576.00
2023-09-06T10:01:28.429Z,580.00
2023-09-06T10:02:40.216Z,580.00
2023-09-06T10:03:29.224Z,568.00
2023-09-06T10:04:28.612Z,584.00
2023-09-06T10:05:28.541Z,584.00
2023-09-06T10:06:28.552Z,580.00
2023-09-06T10:07:39.273Z,584.00
2023-09-06T10:08:28.601Z,584.00
2023-09-06T10:09:28.685Z,588.00
2023-09-06T10:10:28.667Z,588.00
2023-09-06T10:11:28.677Z,588.00
2023-09-06T10:12:28.746Z,588.00
2023-09-06T10:13:29.318Z,592.00
2023-09-06T10:14:28.769Z,592.00
2023-09-06T10:15:28.855Z,592.00
2023-09-06T10:16:28.839Z,592.00
2023-09-06T10:17:28.883Z,592.00
2023-09-06T10:18:29.518Z,592.00
2023-09-06T10:19:32.858Z,596.00
2023-09-06T10:20:28.942Z,596.00
2023-09-06T10:21:29.035Z,596.00
2023-09-06T10:22:28.995Z,600.00
2023-09-06T10:23:29.063Z,600.00
2023-09-06T10:24:29.081Z,604.00
2023-09-06T10:25:29.099Z,608.00
2023-09-06T10:26:29.135Z,620.00
2023-09-06T10:27:29.151Z,628.00
2023-09-06T10:28:29.329Z,616.00
2023-09-06T10:29:29.231Z,608.00
2023-09-06T10:30:29.375Z,616.00
2023-09-06T10:31:29.260Z,612.00
2023-09-06T10:32:29.336Z,616.00
2023-09-06T10:33:29.320Z,620.00
2023-09-06T10:34:29.361Z,636.00
2023-09-06T10:35:29.369Z,640.00
2023-09-06T10:36:29.399Z,632.00
2023-09-06T10:37:29.437Z,628.00
2023-09-06T10:38:29.735Z,628.00
2023-09-06T10:39:29.489Z,640.00
2023-09-06T10:40:29.550Z,640.00
2023-09-06T10:41:29.565Z,644.00
2023-09-06T10:42:29.614Z,640.00
2023-09-06T10:43:29.631Z,652.00
2023-09-06T10:44:29.631Z,652.00
2023-09-06T10:45:29.691Z,656.00
2023-09-06T10:46:29.859Z,652.00
2023-09-06T10:47:29.729Z,656.00
2023-09-06T10:48:29.944Z,660.00
2023-09-06T10:49:32.747Z,664.00
2023-09-06T10:50:29.804Z,668.00
2023-09-06T10:51:29.868Z,668.00
2023-09-06T10:52:29.891Z,676.00
2023-09-06T10:53:30.083Z,684.00
2023-09-06T10:54:29.943Z,700.00
2023-09-06T10:55:29.990Z,728.00
2023-09-06T10:56:30.020Z,764.00
2023-09-06T10:57:30.018Z,716.00
2023-09-06T10:58:30.453Z,708.00
2023-09-06T10:59:30.078Z,708.00
2023-09-06T11:00:30.094Z,704.00
2023-09-06T11:01:34.933Z,704.00
2023-09-06T11:02:30.351Z,720.00
2023-09-06T11:03:30.340Z,732.00
2023-09-06T11:04:30.266Z,732.00
2023-09-06T11:05:30.326Z,744.00
2023-09-06T11:06:30.312Z,748.00
2023-09-06T11:07:43.214Z,740.00
2023-09-06T11:08:30.659Z,756.00
2023-09-06T11:09:30.364Z,744.00
2023-09-06T11:10:30.440Z,752.00
2023-09-06T11:11:30.441Z,752.00
2023-09-06T11:12:30.452Z,748.00
2023-09-06T11:13:30.594Z,740.00
2023-09-06T11:14:30.510Z,736.00
2023-09-06T11:15:30.571Z,748.00
2023-09-06T11:16:30.573Z,756.00
2023-09-06T11:17:30.702Z,764.00
2023-09-06T11:18:31.095Z,780.00
2023-09-06T11:19:30.661Z,748.00
2023-09-06T11:20:30.691Z,748.00
2023-09-06T11:21:30.719Z,744.00
2023-09-06T11:22:30.789Z,740.00
2023-09-06T11:23:30.805Z,740.00
2023-09-06T11:24:30.809Z,744.00
2023-09-06T11:25:30.868Z,760.00
2023-09-06T11:26:30.886Z,748.00
2023-09-06T11:27:30.900Z,740.00
2023-09-06T11:28:31.244Z,744.00
2023-09-06T11:29:30.995Z,752.00
2023-09-06T11:30:30.987Z,748.00
2023-09-06T11:31:31.212Z,744.00
2023-09-06T11:32:31.080Z,740.00
2023-09-06T11:33:31.189Z,744.00
2023-09-06T11:34:31.190Z,744.00
2023-09-06T11:35:31.157Z,744.00
2023-09-06T11:36:31.175Z,748.00
2023-09-06T11:37:31.231Z,752.00
2023-09-06T11:38:31.815Z,752.00
2023-09-06T11:39:31.277Z,764.00
2023-09-06T11:40:31.326Z,768.00
2023-09-06T11:41:31.338Z,768.00
2023-09-06T11:42:31.351Z,772.00
2023-09-06T11:43:31.389Z,776.00
2023-09-06T11:44:31.444Z,784.00
2023-09-06T11:45:31.480Z,784.00
2023-09-06T11:46:31.579Z,784.00
2023-09-06T11:47:31.621Z,784.00
2023-09-06T11:48:31.662Z,792.00
2023-09-06T11:49:31.621Z,792.00
2023-09-06T11:50:32.110Z,784.00
2023-09-06T11:51:31.623Z,788.00
2023-09-06T11:52:34.645Z,796.00
2023-09-06T11:53:31.681Z,796.00
2023-09-06T11:54:31.709Z,692.00
2023-09-06T11:55:31.777Z,804.00
2023-09-06T11:56:32.157Z,812.00
2023-09-06T11:57:31.827Z,804.00
2023-09-06T11:58:32.041Z,804.00
2023-09-06T11:59:31.866Z,804.00
2023-09-06T12:00:32.002Z,816.00
2023-09-06T12:01:32.003Z,816.00
2023-09-06T12:02:32.017Z,816.00
2023-09-06T12:03:32.171Z,820.00
2023-09-06T12:04:32.019Z,820.00
2023-09-06T12:05:46.179Z,836.00
2023-09-06T12:06:32.178Z,836.00
2023-09-06T12:07:32.105Z,932.00
2023-09-06T12:08:32.397Z,960.00
2023-09-06T12:09:32.169Z,1308.00
2023-09-06T12:10:32.252Z,1056.00
2023-09-06T12:11:32.239Z,1008.00
2023-09-06T12:12:32.270Z,948.00
2023-09-06T12:13:32.304Z,940.00
2023-09-06T12:14:32.350Z,1152.00
2023-09-06T12:15:32.392Z,2300.00
2023-09-06T12:16:32.504Z,1988.00
2023-09-06T12:17:32.541Z,1008.00
2023-09-06T12:18:32.710Z,1196.00
2023-09-06T12:19:32.478Z,1068.00
2023-09-06T12:20:32.541Z,980.00
2023-09-06T12:21:32.550Z,984.00
2023-09-06T12:22:32.567Z,876.00
2023-09-06T12:23:33.876Z,868.00
2023-09-06T12:24:32.638Z,884.00
2023-09-06T12:25:32.668Z,904.00
2023-09-06T12:26:32.751Z,1060.00
2023-09-06T12:27:32.779Z,976.00
2023-09-06T12:28:33.243Z,944.00
2023-09-06T12:29:32.812Z,988.00
2023-09-06T12:30:32.818Z,904.00
2023-09-06T12:31:32.894Z,924.00
2023-09-06T12:32:33.057Z,928.00
2023-09-06T12:33:33.054Z,908.00
2023-09-06T12:34:32.944Z,896.00
2023-09-06T12:35:32.983Z,892.00
2023-09-06T12:36:33.030Z,956.00
2023-09-06T12:37:33.046Z,1020.00
2023-09-06T12:38:33.070Z,1012.00
2023-09-06T12:39:33.113Z,1008.00
2023-09-06T12:41:33.241Z,912.00
2023-09-06T12:42:33.190Z,912.00
2023-09-06T12:43:33.232Z,908.00
2023-09-06T12:44:33.286Z,916.00
2023-09-06T12:45:33.298Z,924.00
2023-09-06T12:46:33.402Z,924.00
2023-09-06T12:47:33.409Z,916.00